Hauptseite
METAR-TAF:

METAR-TAF

Flughäfen :

Flughafen Matsapha

Manzini, Swasiland

Breite: 26-32S, Länge: 031-18E, Höhe: 641 m

Beobachtung

Neuester Wetterbericht von vor 9 Stunden und 34 Minuten, um 13:00 UTC
Wind 5 kt aus Süd
Temperatur 24°C
Luftfeuchtigkeit 50%
Luftdruck 1023 hPa
Sichtweite 10 km oder mehr
Durchbrochene Bewölkung in der Höhe von 3000 ft

METAR: FDMS 281300Z 17005KT 9999 BKN030 24/13 Q1023 NOSIG

Zeit: 00:34 (22:34 UTC)

Prognose

Neuester Wetterbericht von vor 12 Stunden und 34 Minuten, um 10:00 UTC
Gültige Prognose vom 28 um 12 UTC bis 28 um 21 UTC
Wind 9 kt aus Süd/Südost
Sichtweite 10 km oder mehr
Durchbrochene Bewölkung in der Höhe von 3500 ft
Übergehend zu
vom 28 um 12 UTC bis 28 um 14 UTC
Aufgelockert bewölkt in der Höhe von 3500 ft

TAF: FDMS 281000Z 2812/2821 16009KT 9999 BKN035 BECMG 2812/2814 SCT035

Wetterbeobachtungen und Prognosen von mehr als 4000 Flughäfen (METAR und TAF Bericht).

Die verfügbaren Stationen werden durch gelbe und rote Markierungen auf der Karte dargestellt.

Führen Sie die Maus auf sie, um den Namen der Station zu sehen.

Darauf klicken, um die Beobachtung von Wetterbeobachtungen und Prognosen zu sehen.

Um die Karte zu ändern : klicken Sie auf den grünen Tasten mit einem schwarzen Kreuz Zum Vergrößern, auf den grünen Button mit einem Gedankenstrich zu verkleinern, oder auf die grünen Pfeile für benachbarte Karten.


METAR-TAF: